sensor_id;sensor_type;location;lat;lon;timestamp;pressure;altitude;pressure_sealevel;temperature;humidity
38038;BME280;23843;51.320;12.340;2023-05-21T00:01:15;100577.91;;;15.25;100.00
38038;BME280;23843;51.320;12.340;2023-05-21T00:03:42;100580.66;;;15.23;100.00
38038;BME280;23843;51.320;12.340;2023-05-21T00:06:08;100582.81;;;15.18;100.00
38038;BME280;23843;51.320;12.340;2023-05-21T00:08:33;100574.06;;;15.16;100.00
38038;BME280;23843;51.320;12.340;2023-05-21T00:10:59;100564.44;;;15.13;100.00
38038;BME280;23843;51.320;12.340;2023-05-21T00:13:24;100572.59;;;15.12;100.00
38038;BME280;23843;51.320;12.340;2023-05-21T00:15:50;100562.84;;;15.11;100.00
38038;BME280;23843;51.320;12.340;2023-05-21T00:18:15;100557.41;;;15.12;100.00
38038;BME280;23843;51.320;12.340;2023-05-21T00:20:42;100570.94;;;15.09;100.00
38038;BME280;23843;51.320;12.340;2023-05-21T00:23:10;100557.84;;;15.06;100.00
38038;BME280;23843;51.320;12.340;2023-05-21T00:25:36;100558.91;;;15.04;100.00
38038;BME280;23843;51.320;12.340;2023-05-21T00:28:01;100557.41;;;14.99;100.00
38038;BME280;23843;51.320;12.340;2023-05-21T00:30:28;100554.84;;;14.98;100.00
38038;BME280;23843;51.320;12.340;2023-05-21T00:32:53;100562.09;;;14.96;100.00
38038;BME280;23843;51.320;12.340;2023-05-21T00:35:19;100552.41;;;14.95;100.00
38038;BME280;23843;51.320;12.340;2023-05-21T00:37:46;100550.81;;;14.92;100.00
38038;BME280;23843;51.320;12.340;2023-05-21T00:40:11;100551.00;;;14.89;100.00
38038;BME280;23843;51.320;12.340;2023-05-21T00:42:37;100555.56;;;14.87;100.00
38038;BME280;23843;51.320;12.340;2023-05-21T00:45:03;100553.13;;;14.84;100.00
38038;BME280;23843;51.320;12.340;2023-05-21T00:47:28;100564.66;;;14.85;100.00
38038;BME280;23843;51.320;12.340;2023-05-21T00:49:54;100552.38;;;14.82;100.00
38038;BME280;23843;51.320;12.340;2023-05-21T00:52:20;100551.63;;;14.80;100.00
38038;BME280;23843;51.320;12.340;2023-05-21T00:54:48;100553.34;;;14.81;100.00
38038;BME280;23843;51.320;12.340;2023-05-21T00:57:15;100562.28;;;14.80;100.00
38038;BME280;23843;51.320;12.340;2023-05-21T00:59:43;100554.41;;;14.79;100.00
38038;BME280;23843;51.320;12.340;2023-05-21T01:02:08;100549.94;;;14.79;100.00
38038;BME280;23843;51.320;12.340;2023-05-21T01:04:34;100545.56;;;14.78;100.00
38038;BME280;23843;51.320;12.340;2023-05-21T01:07:00;100552.69;;;14.77;100.00
38038;BME280;23843;51.320;12.340;2023-05-21T01:09:25;100542.91;;;14.78;100.00
38038;BME280;23843;51.320;12.340;2023-05-21T01:11:54;100545.97;;;14.72;100.00
38038;BME280;23843;51.320;12.340;2023-05-21T01:14:21;100538.19;;;14.69;100.00
38038;BME280;23843;51.320;12.340;2023-05-21T01:16:48;100541.16;;;14.64;100.00
38038;BME280;23843;51.320;12.340;2023-05-21T01:19:15;100528.91;;;14.62;100.00
38038;BME280;23843;51.320;12.340;2023-05-21T01:21:44;100527.94;;;14.63;100.00
38038;BME280;23843;51.320;12.340;2023-05-21T01:24:12;100524.19;;;14.65;100.00
38038;BME280;23843;51.320;12.340;2023-05-21T01:26:37;100526.22;;;14.62;100.00
38038;BME280;23843;51.320;12.340;2023-05-21T01:29:03;100532.41;;;14.62;100.00
38038;BME280;23843;51.320;12.340;2023-05-21T01:31:33;100537.13;;;14.59;100.00
38038;BME280;23843;51.320;12.340;2023-05-21T01:34:04;100525.91;;;14.53;100.00
38038;BME280;23843;51.320;12.340;2023-05-21T01:36:33;100530.28;;;14.54;100.00
38038;BME280;23843;51.320;12.340;2023-05-21T01:39:06;100523.03;;;14.57;100.00
38038;BME280;23843;51.320;12.340;2023-05-21T01:41:37;100518.63;;;14.55;100.00
38038;BME280;23843;51.320;12.340;2023-05-21T01:44:05;100515.31;;;14.52;100.00
38038;BME280;23843;51.320;12.340;2023-05-21T01:46:34;100522.56;;;14.50;100.00
38038;BME280;23843;51.320;12.340;2023-05-21T01:49:00;100517.31;;;14.48;100.00
38038;BME280;23843;51.320;12.340;2023-05-21T01:51:26;100520.94;;;14.47;100.00
38038;BME280;23843;51.320;12.340;2023-05-21T01:53:52;100517.44;;;14.47;100.00
38038;BME280;23843;51.320;12.340;2023-05-21T01:56:17;100518.50;;;14.44;100.00
38038;BME280;23843;51.320;12.340;2023-05-21T01:58:44;100515.94;;;14.43;100.00
38038;BME280;23843;51.320;12.340;2023-05-21T02:01:09;100517.66;;;14.44;100.00
38038;BME280;23843;51.320;12.340;2023-05-21T02:03:35;100517.00;;;14.40;100.00
38038;BME280;23843;51.320;12.340;2023-05-21T02:06:01;100517.00;;;14.40;100.00
38038;BME280;23843;51.320;12.340;2023-05-21T02:08:26;100520.63;;;14.39;100.00
38038;BME280;23843;51.320;12.340;2023-05-21T02:10:51;100509.09;;;14.39;100.00
38038;BME280;23843;51.320;12.340;2023-05-21T02:13:17;100519.13;;;14.35;100.00
38038;BME280;23843;51.320;12.340;2023-05-21T02:15:44;100513.88;;;14.33;100.00
38038;BME280;23843;51.320;12.340;2023-05-21T02:18:09;100512.94;;;14.34;100.00
38038;BME280;23843;51.320;12.340;2023-05-21T02:20:35;100516.53;;;14.33;100.00
38038;BME280;23843;51.320;12.340;2023-05-21T02:23:00;100514.00;;;14.32;100.00
38038;BME280;23843;51.320;12.340;2023-05-21T02:25:26;100506.22;;;14.29;100.00
38038;BME280;23843;51.320;12.340;2023-05-21T02:27:51;100502.56;;;14.30;100.00
38038;BME280;23843;51.320;12.340;2023-05-21T02:30:17;100509.72;;;14.29;100.00
38038;BME280;23843;51.320;12.340;2023-05-21T02:32:47;100506.09;;;14.30;100.00
38038;BME280;23843;51.320;12.340;2023-05-21T02:35:12;100509.06;;;14.26;100.00
38038;BME280;23843;51.320;12.340;2023-05-21T02:37:38;100513.63;;;14.24;100.00
38038;BME280;23843;51.320;12.340;2023-05-21T02:40:05;100528.91;;;14.22;100.00
38038;BME280;23843;51.320;12.340;2023-05-21T02:42:32;100515.97;;;14.16;100.00
38038;BME280;23843;51.320;12.340;2023-05-21T02:44:58;100514.28;;;14.15;100.00
38038;BME280;23843;51.320;12.340;2023-05-21T02:47:24;100517.88;;;14.13;100.00
38038;BME280;23843;51.320;12.340;2023-05-21T02:49:51;100519.78;;;14.11;100.00
38038;BME280;23843;51.320;12.340;2023-05-21T02:52:17;100522.66;;;14.08;100.00
38038;BME280;23843;51.320;12.340;2023-05-21T02:54:43;100522.66;;;14.08;100.00
38038;BME280;23843;51.320;12.340;2023-05-21T02:57:08;100514.75;;;14.07;100.00
38038;BME280;23843;51.320;12.340;2023-05-21T02:59:34;100516.56;;;14.06;100.00
38038;BME280;23843;51.320;12.340;2023-05-21T03:01:59;100517.53;;;14.05;100.00
38038;BME280;23843;51.320;12.340;2023-05-21T03:04:25;100512.31;;;14.04;100.00
38038;BME280;23843;51.320;12.340;2023-05-21T03:06:52;100512.22;;;14.05;100.00
38038;BME280;23843;51.320;12.340;2023-05-21T03:09:17;100518.47;;;14.04;100.00
38038;BME280;23843;51.320;12.340;2023-05-21T03:11:42;100501.78;;;14.02;100.00
38038;BME280;23843;51.320;12.340;2023-05-21T03:14:08;100510.69;;;14.01;100.00
38038;BME280;23843;51.320;12.340;2023-05-21T03:18:59;100502.69;;;14.01;100.00
38038;BME280;23843;51.320;12.340;2023-05-21T03:21:24;100507.28;;;13.99;100.00
38038;BME280;23843;51.320;12.340;2023-05-21T03:23:51;100510.91;;;13.98;100.00
38038;BME280;23843;51.320;12.340;2023-05-21T03:26:17;100515.56;;;13.95;100.00
38038;BME280;23843;51.320;12.340;2023-05-21T03:28:42;100504.06;;;13.94;100.00
38038;BME280;23843;51.320;12.340;2023-05-21T03:31:08;100504.81;;;13.96;100.00
38038;BME280;23843;51.320;12.340;2023-05-21T03:33:33;100500.47;;;13.95;100.00
38038;BME280;23843;51.320;12.340;2023-05-21T03:35:59;100503.00;;;13.97;100.00
38038;BME280;23843;51.320;12.340;2023-05-21T03:38:24;100501.84;;;14.01;100.00
38038;BME280;23843;51.320;12.340;2023-05-21T03:40:51;100502.63;;;14.03;100.00
38038;BME280;23843;51.320;12.340;2023-05-21T03:43:16;100509.63;;;14.04;100.00
38038;BME280;23843;51.320;12.340;2023-05-21T03:45:42;100505.38;;;14.01;100.00
38038;BME280;23843;51.320;12.340;2023-05-21T03:48:07;100504.72;;;13.98;100.00
38038;BME280;23843;51.320;12.340;2023-05-21T03:50:33;100503.75;;;13.99;100.00
38038;BME280;23843;51.320;12.340;2023-05-21T03:52:58;100503.47;;;14.03;100.00
38038;BME280;23843;51.320;12.340;2023-05-21T03:55:24;100513.06;;;14.06;100.00
38038;BME280;23843;51.320;12.340;2023-05-21T03:57:50;100505.91;;;14.06;100.00
38038;BME280;23843;51.320;12.340;2023-05-21T04:00:16;100502.19;;;14.09;100.00
38038;BME280;23843;51.320;12.340;2023-05-21T04:02:42;100506.59;;;14.10;100.00
38038;BME280;23843;51.320;12.340;2023-05-21T04:05:07;100501.88;;;14.13;100.00
38038;BME280;23843;51.320;12.340;2023-05-21T04:07:33;100505.22;;;14.17;100.00
38038;BME280;23843;51.320;12.340;2023-05-21T04:09:58;100510.13;;;14.23;100.00
38038;BME280;23843;51.320;12.340;2023-05-21T04:12:24;100510.78;;;14.27;100.00
38038;BME280;23843;51.320;12.340;2023-05-21T04:14:51;100514.22;;;14.29;100.00
38038;BME280;23843;51.320;12.340;2023-05-21T04:17:16;100516.75;;;14.30;100.00
38038;BME280;23843;51.320;12.340;2023-05-21T04:19:42;100511.88;;;14.37;100.00
38038;BME280;23843;51.320;12.340;2023-05-21T04:22:09;100511.56;;;14.42;100.00
38038;BME280;23843;51.320;12.340;2023-05-21T04:24:34;100513.03;;;14.46;100.00
38038;BME280;23843;51.320;12.340;2023-05-21T04:26:59;100517.22;;;14.50;100.00
38038;BME280;23843;51.320;12.340;2023-05-21T04:29:25;100522.28;;;14.54;100.00
38038;BME280;23843;51.320;12.340;2023-05-21T04:31:52;100530.19;;;14.56;100.00
38038;BME280;23843;51.320;12.340;2023-05-21T04:34:17;100519.50;;;14.56;100.00
38038;BME280;23843;51.320;12.340;2023-05-21T04:36:43;100514.06;;;14.58;100.00
38038;BME280;23843;51.320;12.340;2023-05-21T04:39:09;100515.56;;;14.62;100.00
38038;BME280;23843;51.320;12.340;2023-05-21T04:41:34;100516.84;;;14.69;100.00
38038;BME280;23843;51.320;12.340;2023-05-21T04:44:00;100524.22;;;14.78;100.00
38038;BME280;23843;51.320;12.340;2023-05-21T04:46:25;100521.34;;;14.81;100.00
38038;BME280;23843;51.320;12.340;2023-05-21T04:48:52;100521.97;;;14.85;100.00
38038;BME280;23843;51.320;12.340;2023-05-21T04:51:18;100517.59;;;14.84;100.00
38038;BME280;23843;51.320;12.340;2023-05-21T04:53:43;100517.16;;;14.90;100.00
38038;BME280;23843;51.320;12.340;2023-05-21T04:56:09;100518.13;;;15.02;100.00
38038;BME280;23843;51.320;12.340;2023-05-21T04:58:34;100515.66;;;15.11;100.00
38038;BME280;23843;51.320;12.340;2023-05-21T05:01:00;100525.78;;;15.19;100.00
38038;BME280;23843;51.320;12.340;2023-05-21T05:03:25;100521.97;;;15.23;100.00
38038;BME280;23843;51.320;12.340;2023-05-21T05:05:52;100513.00;;;15.24;100.00
38038;BME280;23843;51.320;12.340;2023-05-21T05:08:19;100524.22;;;15.29;100.00
38038;BME280;23843;51.320;12.340;2023-05-21T05:10:45;100519.16;;;15.37;100.00
38038;BME280;23843;51.320;12.340;2023-05-21T05:13:10;100509.75;;;15.45;100.00
38038;BME280;23843;51.320;12.340;2023-05-21T05:15:36;100514.44;;;15.54;100.00
38038;BME280;23843;51.320;12.340;2023-05-21T05:18:01;100507.34;;;15.66;100.00
38038;BME280;23843;51.320;12.340;2023-05-21T05:20:27;100506.03;;;15.84;100.00
38038;BME280;23843;51.320;12.340;2023-05-21T05:22:55;100502.16;;;16.12;100.00
38038;BME280;23843;51.320;12.340;2023-05-21T05:25:20;100500.13;;;16.62;100.00
38038;BME280;23843;51.320;12.340;2023-05-21T05:27:46;100503.00;;;17.28;100.00
38038;BME280;23843;51.320;12.340;2023-05-21T05:30:12;100502.09;;;17.84;100.00
38038;BME280;23843;51.320;12.340;2023-05-21T05:32:38;100497.34;;;18.20;100.00
38038;BME280;23843;51.320;12.340;2023-05-21T05:35:04;100498.50;;;18.80;100.00
38038;BME280;23843;51.320;12.340;2023-05-21T05:37:30;100496.72;;;19.31;100.00
38038;BME280;23843;51.320;12.340;2023-05-21T05:39:57;100502.53;;;19.27;100.00
38038;BME280;23843;51.320;12.340;2023-05-21T05:42:24;100492.38;;;19.40;100.00
38038;BME280;23843;51.320;12.340;2023-05-21T05:44:50;100497.84;;;19.29;100.00
38038;BME280;23843;51.320;12.340;2023-05-21T05:47:15;100492.69;;;19.46;100.00
38038;BME280;23843;51.320;12.340;2023-05-21T05:49:41;100488.50;;;19.63;100.00
38038;BME280;23843;51.320;12.340;2023-05-21T05:52:09;100496.22;;;19.78;100.00
38038;BME280;23843;51.320;12.340;2023-05-21T05:54:34;100494.91;;;19.72;100.00
38038;BME280;23843;51.320;12.340;2023-05-21T05:57:01;100498.91;;;19.47;100.00
38038;BME280;23843;51.320;12.340;2023-05-21T05:59:26;100495.63;;;19.34;100.00
38038;BME280;23843;51.320;12.340;2023-05-21T06:01:52;100488.66;;;19.31;100.00
38038;BME280;23843;51.320;12.340;2023-05-21T06:04:17;100487.28;;;19.27;100.00
38038;BME280;23843;51.320;12.340;2023-05-21T06:06:43;100490.94;;;19.36;100.00
38038;BME280;23843;51.320;12.340;2023-05-21T06:09:11;100495.44;;;19.25;100.00
38038;BME280;23843;51.320;12.340;2023-05-21T06:11:39;100495.41;;;19.16;100.00
38038;BME280;23843;51.320;12.340;2023-05-21T06:14:06;100487.22;;;19.17;100.00
38038;BME280;23843;51.320;12.340;2023-05-21T06:16:31;100485.78;;;19.13;100.00
38038;BME280;23843;51.320;12.340;2023-05-21T06:18:57;100486.34;;;19.07;100.00
38038;BME280;23843;51.320;12.340;2023-05-21T06:21:22;100486.94;;;18.90;100.00
38038;BME280;23843;51.320;12.340;2023-05-21T06:23:48;100496.66;;;18.81;100.00
38038;BME280;23843;51.320;12.340;2023-05-21T06:26:13;100488.22;;;18.86;100.00
38038;BME280;23843;51.320;12.340;2023-05-21T06:28:41;100491.88;;;18.85;100.00
38038;BME280;23843;51.320;12.340;2023-05-21T06:31:08;100488.44;;;19.03;100.00
38038;BME280;23843;51.320;12.340;2023-05-21T06:33:36;100490.34;;;19.22;100.00
38038;BME280;23843;51.320;12.340;2023-05-21T06:36:02;100487.63;;;19.63;100.00
38038;BME280;23843;51.320;12.340;2023-05-21T06:38:27;100492.97;;;20.33;100.00
38038;BME280;23843;51.320;12.340;2023-05-21T06:40:53;100500.75;;;21.12;100.00
38038;BME280;23843;51.320;12.340;2023-05-21T06:43:21;100497.56;;;21.82;90.07
38038;BME280;23843;51.320;12.340;2023-05-21T06:45:49;100499.84;;;22.40;87.45
38038;BME280;23843;51.320;12.340;2023-05-21T06:48:16;100500.94;;;22.99;84.43
38038;BME280;23843;51.320;12.340;2023-05-21T06:50:41;100502.75;;;23.51;80.40
38038;BME280;23843;51.320;12.340;2023-05-21T06:53:07;100498.00;;;24.12;79.53
38038;BME280;23843;51.320;12.340;2023-05-21T06:55:32;100487.66;;;24.97;72.81
38038;BME280;23843;51.320;12.340;2023-05-21T06:57:58;100488.13;;;26.34;74.71
38038;BME280;23843;51.320;12.340;2023-05-21T07:00:23;100488.28;;;27.38;62.42
38038;BME280;23843;51.320;12.340;2023-05-21T07:02:49;100486.72;;;28.45;63.09
38038;BME280;23843;51.320;12.340;2023-05-21T07:05:16;100481.22;;;29.22;45.64
38038;BME280;23843;51.320;12.340;2023-05-21T07:07:42;100481.94;;;29.93;42.92
38038;BME280;23843;51.320;12.340;2023-05-21T07:10:10;100484.09;;;30.50;40.85
38038;BME280;23843;51.320;12.340;2023-05-21T07:12:36;100481.03;;;31.32;49.49
38038;BME280;23843;51.320;12.340;2023-05-21T07:15:01;100490.88;;;32.55;52.83
38038;BME280;23843;51.320;12.340;2023-05-21T07:17:27;100482.13;;;32.39;43.29
38038;BME280;23843;51.320;12.340;2023-05-21T07:19:52;100485.66;;;33.15;44.34
38038;BME280;23843;51.320;12.340;2023-05-21T07:22:19;100468.41;;;33.45;35.61
38038;BME280;23843;51.320;12.340;2023-05-21T07:24:44;100469.19;;;34.13;38.23
38038;BME280;23843;51.320;12.340;2023-05-21T07:27:10;100469.50;;;34.58;32.84
38038;BME280;23843;51.320;12.340;2023-05-21T07:29:38;100472.72;;;34.90;32.68
38038;BME280;23843;51.320;12.340;2023-05-21T07:32:04;100463.03;;;35.52;36.76
38038;BME280;23843;51.320;12.340;2023-05-21T07:34:29;100467.88;;;35.73;34.14
38038;BME280;23843;51.320;12.340;2023-05-21T07:36:55;100451.00;;;35.29;30.59
38038;BME280;23843;51.320;12.340;2023-05-21T07:39:22;100456.22;;;35.43;29.55
38038;BME280;23843;51.320;12.340;2023-05-21T07:41:47;100465.56;;;35.99;31.23
38038;BME280;23843;51.320;12.340;2023-05-21T07:44:15;100462.94;;;36.72;31.08
38038;BME280;23843;51.320;12.340;2023-05-21T07:46:41;100458.69;;;37.03;29.38
38038;BME280;23843;51.320;12.340;2023-05-21T07:49:06;100456.91;;;36.75;27.45
38038;BME280;23843;51.320;12.340;2023-05-21T07:51:32;100454.94;;;37.09;29.62
38038;BME280;23843;51.320;12.340;2023-05-21T07:53:58;100457.03;;;37.02;27.82
38038;BME280;23843;51.320;12.340;2023-05-21T07:56:24;100458.75;;;36.52;31.51
38038;BME280;23843;51.320;12.340;2023-05-21T07:58:50;100456.13;;;36.57;33.85
38038;BME280;23843;51.320;12.340;2023-05-21T08:01:15;100442.63;;;37.17;26.77
38038;BME280;23843;51.320;12.340;2023-05-21T08:03:43;100450.25;;;37.54;32.86
38038;BME280;23843;51.320;12.340;2023-05-21T08:06:12;100450.25;;;37.32;26.01
38038;BME280;23843;51.320;12.340;2023-05-21T08:08:37;100447.97;;;37.28;30.39
38038;BME280;23843;51.320;12.340;2023-05-21T08:11:03;100438.81;;;37.23;27.35
38038;BME280;23843;51.320;12.340;2023-05-21T08:13:29;100431.06;;;37.47;25.56
38038;BME280;23843;51.320;12.340;2023-05-21T08:15:57;100438.53;;;37.02;25.42
38038;BME280;23843;51.320;12.340;2023-05-21T08:18:26;100429.56;;;37.34;27.42
38038;BME280;23843;51.320;12.340;2023-05-21T08:20:51;100433.44;;;38.47;26.77
38038;BME280;23843;51.320;12.340;2023-05-21T08:23:17;100439.13;;;39.30;23.61
38038;BME280;23843;51.320;12.340;2023-05-21T08:25:42;100443.78;;;38.67;24.67
38038;BME280;23843;51.320;12.340;2023-05-21T08:28:08;100434.00;;;38.49;26.84
38038;BME280;23843;51.320;12.340;2023-05-21T08:30:35;100441.97;;;39.46;26.10
38038;BME280;23843;51.320;12.340;2023-05-21T08:33:00;100434.59;;;40.23;24.06
38038;BME280;23843;51.320;12.340;2023-05-21T08:35:26;100432.97;;;40.27;22.40
38038;BME280;23843;51.320;12.340;2023-05-21T08:37:51;100437.03;;;40.81;24.70
38038;BME280;23843;51.320;12.340;2023-05-21T08:40:17;100435.91;;;40.82;26.82
38038;BME280;23843;51.320;12.340;2023-05-21T08:42:44;100422.38;;;40.09;22.60
38038;BME280;23843;51.320;12.340;2023-05-21T08:45:12;100417.16;;;41.23;22.23
38038;BME280;23843;51.320;12.340;2023-05-21T08:47:42;100410.38;;;41.84;23.04
38038;BME280;23843;51.320;12.340;2023-05-21T08:50:09;100419.22;;;40.97;19.74
38038;BME280;23843;51.320;12.340;2023-05-21T08:52:35;100431.84;;;39.92;23.49
38038;BME280;23843;51.320;12.340;2023-05-21T08:55:02;100418.69;;;39.42;21.88
38038;BME280;23843;51.320;12.340;2023-05-21T08:57:29;100420.19;;;40.00;24.66
38038;BME280;23843;51.320;12.340;2023-05-21T08:59:55;100422.94;;;40.52;21.64
38038;BME280;23843;51.320;12.340;2023-05-21T09:02:20;100425.44;;;41.39;20.48
38038;BME280;23843;51.320;12.340;2023-05-21T09:04:52;100422.13;;;40.41;22.01
38038;BME280;23843;51.320;12.340;2023-05-21T09:07:18;100410.91;;;40.87;21.05
38038;BME280;23843;51.320;12.340;2023-05-21T09:09:47;100411.88;;;41.27;21.65
38038;BME280;23843;51.320;12.340;2023-05-21T09:12:19;100402.22;;;41.14;22.70
38038;BME280;23843;51.320;12.340;2023-05-21T09:14:46;100409.69;;;41.08;22.98
38038;BME280;23843;51.320;12.340;2023-05-21T09:17:12;100410.72;;;40.07;22.76
38038;BME280;23843;51.320;12.340;2023-05-21T09:19:38;100417.38;;;40.21;21.48
38038;BME280;23843;51.320;12.340;2023-05-21T09:22:06;100416.47;;;40.82;21.55
38038;BME280;23843;51.320;12.340;2023-05-21T09:24:34;100416.28;;;39.96;21.05
38038;BME280;23843;51.320;12.340;2023-05-21T09:26:59;100415.44;;;39.75;22.08
38038;BME280;23843;51.320;12.340;2023-05-21T09:29:25;100408.69;;;39.41;23.31
38038;BME280;23843;51.320;12.340;2023-05-21T09:31:51;100412.34;;;39.62;22.28
38038;BME280;23843;51.320;12.340;2023-05-21T09:34:16;100419.81;;;38.83;23.35
38038;BME280;23843;51.320;12.340;2023-05-21T09:36:42;100413.28;;;38.19;24.04
38038;BME280;23843;51.320;12.340;2023-05-21T09:39:26;100405.75;;;38.09;24.76
38038;BME280;23843;51.320;12.340;2023-05-21T09:41:51;100403.72;;;38.80;22.35
38038;BME280;23843;51.320;12.340;2023-05-21T09:44:17;100401.13;;;38.20;22.70
38038;BME280;23843;51.320;12.340;2023-05-21T09:46:43;100411.97;;;37.45;23.48
38038;BME280;23843;51.320;12.340;2023-05-21T09:49:21;100404.13;;;36.15;24.66
38038;BME280;23843;51.320;12.340;2023-05-21T09:51:47;100405.47;;;35.39;26.39
38038;BME280;23843;51.320;12.340;2023-05-21T09:54:14;100404.78;;;34.56;27.24
38038;BME280;23843;51.320;12.340;2023-05-21T09:56:39;100398.72;;;33.88;28.65
38038;BME280;23843;51.320;12.340;2023-05-21T09:59:05;100399.59;;;33.40;29.42
38038;BME280;23843;51.320;12.340;2023-05-21T10:01:31;100406.16;;;32.65;29.96
38038;BME280;23843;51.320;12.340;2023-05-21T10:03:58;100405.72;;;32.00;30.38
38038;BME280;23843;51.320;12.340;2023-05-21T10:06:27;100399.44;;;31.54;30.74
38038;BME280;23843;51.320;12.340;2023-05-21T10:08:56;100407.41;;;31.17;31.27
38038;BME280;23843;51.320;12.340;2023-05-21T10:11:26;100396.16;;;30.67;31.97
38038;BME280;23843;51.320;12.340;2023-05-21T10:13:57;100388.63;;;30.56;32.55
38038;BME280;23843;51.320;12.340;2023-05-21T10:16:25;100390.53;;;30.28;33.33
38038;BME280;23843;51.320;12.340;2023-05-21T10:18:53;100386.97;;;29.95;33.57
38038;BME280;23843;51.320;12.340;2023-05-21T10:21:20;100394.03;;;29.56;34.71
38038;BME280;23843;51.320;12.340;2023-05-21T10:23:47;100402.94;;;29.23;34.75
38038;BME280;23843;51.320;12.340;2023-05-21T10:26:16;100381.19;;;29.01;34.06
38038;BME280;23843;51.320;12.340;2023-05-21T10:28:47;100375.06;;;28.86;35.41
38038;BME280;23843;51.320;12.340;2023-05-21T10:31:13;100386.88;;;28.65;36.57
38038;BME280;23843;51.320;12.340;2023-05-21T10:33:40;100383.00;;;28.46;37.02
38038;BME280;23843;51.320;12.340;2023-05-21T10:36:06;100378.75;;;28.15;36.42
38038;BME280;23843;51.320;12.340;2023-05-21T10:38:32;100377.47;;;28.11;37.34
38038;BME280;23843;51.320;12.340;2023-05-21T10:40:58;100374.91;;;28.03;36.09
38038;BME280;23843;51.320;12.340;2023-05-21T10:43:40;100371.53;;;28.01;37.75
38038;BME280;23843;51.320;12.340;2023-05-21T10:46:23;100358.81;;;28.08;37.51
38038;BME280;23843;51.320;12.340;2023-05-21T10:49:00;100366.06;;;28.01;38.18
38038;BME280;23843;51.320;12.340;2023-05-21T10:51:38;100364.81;;;27.97;37.61
38038;BME280;23843;51.320;12.340;2023-05-21T10:54:31;100372.00;;;27.83;38.74
38038;BME280;23843;51.320;12.340;2023-05-21T10:57:09;100369.56;;;27.73;39.20
38038;BME280;23843;51.320;12.340;2023-05-21T10:59:41;100359.13;;;27.77;39.27
38038;BME280;23843;51.320;12.340;2023-05-21T11:02:11;100362.31;;;27.81;38.48
38038;BME280;23843;51.320;12.340;2023-05-21T11:04:37;100362.44;;;27.51;38.46
38038;BME280;23843;51.320;12.340;2023-05-21T11:07:03;100368.59;;;27.60;38.47
38038;BME280;23843;51.320;12.340;2023-05-21T11:09:31;100362.50;;;27.58;38.01
38038;BME280;23843;51.320;12.340;2023-05-21T11:11:58;100356.69;;;27.61;38.49
38038;BME280;23843;51.320;12.340;2023-05-21T11:14:33;100352.34;;;27.66;38.76
38038;BME280;23843;51.320;12.340;2023-05-21T11:17:00;100364.13;;;27.73;38.08
38038;BME280;23843;51.320;12.340;2023-05-21T11:19:37;100354.97;;;27.60;38.81
38038;BME280;23843;51.320;12.340;2023-05-21T11:22:20;100376.56;;;27.40;39.19
38038;BME280;23843;51.320;12.340;2023-05-21T11:24:45;100360.97;;;27.33;38.58
38038;BME280;23843;51.320;12.340;2023-05-21T11:27:11;100355.28;;;27.28;40.71
38038;BME280;23843;51.320;12.340;2023-05-21T11:29:41;100348.59;;;27.46;38.69
38038;BME280;23843;51.320;12.340;2023-05-21T11:32:09;100350.78;;;27.57;38.73
38038;BME280;23843;51.320;12.340;2023-05-21T11:34:38;100345.81;;;27.61;39.07
38038;BME280;23843;51.320;12.340;2023-05-21T11:37:26;100359.84;;;27.64;39.36
38038;BME280;23843;51.320;12.340;2023-05-21T11:39:52;100339.75;;;27.65;38.91
38038;BME280;23843;51.320;12.340;2023-05-21T11:42:27;100354.81;;;27.61;39.53
38038;BME280;23843;51.320;12.340;2023-05-21T11:44:55;100343.69;;;27.63;39.16
38038;BME280;23843;51.320;12.340;2023-05-21T11:47:20;100341.97;;;27.55;39.55
38038;BME280;23843;51.320;12.340;2023-05-21T11:49:48;100340.53;;;27.59;39.04
38038;BME280;23843;51.320;12.340;2023-05-21T11:52:14;100340.69;;;27.51;39.20
38038;BME280;23843;51.320;12.340;2023-05-21T11:54:41;100341.13;;;27.54;39.73
38038;BME280;23843;51.320;12.340;2023-05-21T11:57:08;100345.34;;;27.57;39.01
38038;BME280;23843;51.320;12.340;2023-05-21T11:59:35;100342.50;;;27.44;39.13
38038;BME280;23843;51.320;12.340;2023-05-21T12:02:00;100343.47;;;27.36;38.61
38038;BME280;23843;51.320;12.340;2023-05-21T12:04:28;100353.88;;;27.32;39.24
38038;BME280;23843;51.320;12.340;2023-05-21T12:06:55;100347.03;;;27.37;38.79
38038;BME280;23843;51.320;12.340;2023-05-21T12:09:21;100342.50;;;27.44;39.12
38038;BME280;23843;51.320;12.340;2023-05-21T12:11:46;100338.59;;;27.53;39.46
38038;BME280;23843;51.320;12.340;2023-05-21T12:14:12;100343.19;;;27.52;38.11
38038;BME280;23843;51.320;12.340;2023-05-21T12:16:38;100321.81;;;27.49;38.30
38038;BME280;23843;51.320;12.340;2023-05-21T12:19:04;100331.53;;;27.59;39.03
38038;BME280;23843;51.320;12.340;2023-05-21T12:21:30;100319.81;;;27.58;38.42
38038;BME280;23843;51.320;12.340;2023-05-21T12:23:57;100334.44;;;27.57;38.24
38038;BME280;23843;51.320;12.340;2023-05-21T12:26:23;100332.25;;;27.46;38.51
38038;BME280;23843;51.320;12.340;2023-05-21T12:28:49;100328.03;;;27.43;38.58
38038;BME280;23843;51.320;12.340;2023-05-21T12:31:14;100331.03;;;27.48;38.83
38038;BME280;23843;51.320;12.340;2023-05-21T12:33:40;100323.44;;;27.44;38.43
38038;BME280;23843;51.320;12.340;2023-05-21T12:36:08;100325.59;;;27.48;38.15